Time,TemperatureF,DewpointF,PressureIn,WindDirection,WindDirectionDegrees,WindSpeedMPH,WindSpeedGustMPH,Humidity,HourlyPrecipIn,Conditions,Clouds,dailyrainin,SolarRadiationWatts/m^2,SoftwareType,DateUTC
2013-11-23 00:00:00,42.5,42.0,30.22,NW,322,2.0,20.2,98,0.00,,---,0.00,0.00,VWS V14.01,2013-11-23 06:00:00,
2013-11-23 00:01:00,42.8,42.3,30.23,NNW,342,9.0,15.2,98,0.00,,---,0.22,0.00,VWS V14.01,2013-11-23 06:01:00,
2013-11-23 00:05:00,42.5,42.2,30.22,NNW,333,7.0,16.2,99,0.00,,---,0.00,0.00,VWS V14.01,2013-11-23 06:05:00,
2013-11-23 00:06:00,42.8,42.3,30.23,NW,326,11.0,16.2,98,0.00,,---,0.00,0.00,VWS V14.01,2013-11-23 06:06:00,
2013-11-23 00:10:00,42.6,42.3,30.22,NW,307,1.0,11.2,99,0.00,,---,0.00,0.00,VWS V14.01,2013-11-23 06:10:00,
2013-11-23 00:11:00,42.8,42.3,30.23,NW,326,9.0,17.2,98,0.00,,---,0.00,0.00,VWS V14.01,2013-11-23 06:11:00,
2013-11-23 00:15:00,42.8,42.5,30.23,NNW,331,6.0,13.2,99,0.00,,---,0.00,0.00,VWS V14.01,2013-11-23 06:15:00,
2013-11-23 00:16:00,42.8,42.3,30.23,WNW,300,5.0,18.2,98,0.00,,---,0.00,0.00,VWS V14.01,2013-11-23 06:16:00,
2013-11-23 00:20:00,42.8,42.5,30.23,NNW,327,4.0,14.2,99,0.00,,---,0.00,0.00,VWS V14.01,2013-11-23 06:20:00,
2013-11-23 00:21:00,42.5,42.0,30.23,NNW,346,4.0,16.2,98,0.00,,---,0.00,0.00,VWS V14.01,2013-11-23 06:21:00,
2013-11-23 00:25:00,42.8,42.5,30.23,NW,316,5.0,17.2,99,0.00,,---,0.00,0.00,VWS V14.01,2013-11-23 06:25:00,
2013-11-23 00:26:00,42.6,42.1,30.23,NW,306,17.0,18.2,98,0.00,,---,0.00,0.00,VWS V14.01,2013-11-23 06:26:00,
2013-11-23 00:30:00,42.6,42.1,30.23,North,360,11.0,19.2,98,0.00,,---,0.00,0.00,VWS V14.01,2013-11-23 06:30:00,
2013-11-23 00:31:00,42.3,41.8,30.23,North,360,11.0,20.2,98,0.00,,---,0.00,0.00,VWS V14.01,2013-11-23 06:31:00,
2013-11-23 00:35:00,42.5,42.0,30.23,NNW,338,6.0,15.2,98,0.00,,---,0.00,0.00,VWS V14.01,2013-11-23 06:35:00,
2013-11-23 00:36:00,42.3,41.8,30.23,NW,309,13.0,18.2,98,0.00,,---,0.00,0.00,VWS V14.01,2013-11-23 06:36:00,
2013-11-23 00:40:00,42.6,42.1,30.23,NW,326,4.0,15.2,98,0.00,,---,0.00,0.00,VWS V14.01,2013-11-23 06:40:00,
2013-11-23 00:41:00,42.6,42.3,30.23,NNW,348,11.0,15.2,99,0.00,,---,0.00,0.00,VWS V14.01,2013-11-23 06:41:00,
2013-11-23 00:45:00,42.6,42.1,30.23,WNW,286,11.0,17.2,98,0.00,,---,0.00,0.00,VWS V14.01,2013-11-23 06:45:00,
2013-11-23 00:46:00,42.5,42.0,30.23,NNW,331,7.0,16.2,98,0.00,,---,0.00,0.00,VWS V14.01,2013-11-23 06:46:00,
2013-11-23 00:50:00,42.6,42.1,30.23,NW,323,7.0,18.2,98,0.00,,---,0.00,0.00,VWS V14.01,2013-11-23 06:50:00,
2013-11-23 00:51:00,42.5,42.2,30.23,NW,304,6.0,21.2,99,0.00,,---,0.00,0.00,VWS V14.01,2013-11-23 06:51:00,
2013-11-23 00:55:00,42.6,42.1,30.23,NNW,336,7.0,16.2,98,0.00,,---,0.00,0.00,VWS V14.01,2013-11-23 06:55:00,
2013-11-23 00:56:00,42.3,41.8,30.23,NW,324,7.0,20.2,98,0.00,,---,0.00,0.00,VWS V14.01,2013-11-23 06:56:00,
2013-11-23 01:00:00,42.6,42.1,30.23,NNW,336,2.0,17.2,98,0.00,,---,0.00,0.00,VWS V14.01,2013-11-23 07:00:00,
2013-11-23 01:01:00,42.5,42.2,30.22,NW,321,5.0,20.2,99,0.00,,---,0.00,0.00,VWS V14.01,2013-11-23 07:01:00,
2013-11-23 01:05:00,42.5,42.0,30.23,NW,309,16.0,20.2,98,0.00,,---,0.00,0.00,VWS V14.01,2013-11-23 07:05:00,
2013-11-23 01:06:00,42.5,42.2,30.22,WNW,303,13.0,15.2,99,0.00,,---,0.00,0.00,VWS V14.01,2013-11-23 07:06:00,
2013-11-23 01:10:00,42.5,42.0,30.23,West,276,9.0,18.2,98,0.00,,---,0.00,0.00,VWS V14.01,2013-11-23 07:10:00,
2013-11-23 01:11:00,42.6,42.3,30.22,NW,312,9.0,11.2,99,0.00,,---,0.00,0.00,VWS V14.01,2013-11-23 07:11:00,
2013-11-23 01:15:00,42.3,41.8,30.24,NNW,332,5.0,17.2,98,0.00,,---,0.00,0.00,VWS V14.01,2013-11-23 07:15:00,
2013-11-23 01:16:00,42.8,42.5,30.23,NW,317,8.0,13.2,99,0.00,,---,0.00,0.00,VWS V14.01,2013-11-23 07:16:00,
2013-11-23 01:20:00,42.3,41.8,30.24,NNW,329,4.0,16.2,98,0.00,,---,0.00,0.00,VWS V14.01,2013-11-23 07:20:00,
2013-11-23 01:21:00,42.8,42.5,30.23,NNW,345,6.0,14.2,99,0.00,,---,0.00,0.00,VWS V14.01,2013-11-23 07:21:00,
2013-11-23 01:25:00,42.3,41.8,30.24,NW,323,3.0,16.2,98,0.00,,---,0.00,0.00,VWS V14.01,2013-11-23 07:25:00,
2013-11-23 01:26:00,42.8,42.5,30.23,NW,313,6.0,17.2,99,0.00,,---,0.00,0.00,VWS V14.01,2013-11-23 07:26:00,
2013-11-23 01:30:00,42.5,42.0,30.23,NW,313,9.0,22.2,98,0.00,,---,0.00,0.00,VWS V14.01,2013-11-23 07:30:00,
2013-11-23 01:31:00,42.6,42.1,30.23,NW,317,7.0,19.2,98,0.00,,---,0.00,0.00,VWS V14.01,2013-11-23 07:31:00,
2013-11-23 01:35:00,42.5,42.0,30.23,NW,315,3.0,16.2,98,0.00,,---,0.00,0.00,VWS V14.01,2013-11-23 07:35:00,
2013-11-23 01:36:00,42.5,42.0,30.23,North,360,4.0,15.2,98,0.00,,---,0.00,0.00,VWS V14.01,2013-11-23 07:36:00,
2013-11-23 01:40:00,42.6,42.1,30.23,NE,34,10.0,19.2,98,0.00,,---,0.00,0.00,VWS V14.01,2013-11-23 07:40:00,
2013-11-23 01:41:00,42.6,42.1,30.23,NNW,340,9.0,15.2,98,0.00,,---,0.00,0.00,VWS V14.01,2013-11-23 07:41:00,
2013-11-23 01:45:00,42.5,42.0,30.23,WNW,302,12.0,14.2,98,0.00,,---,0.00,0.00,VWS V14.01,2013-11-23 07:45:00,
2013-11-23 01:46:00,42.6,42.1,30.23,NNW,333,7.0,16.2,98,0.00,,---,0.00,0.00,VWS V14.01,2013-11-23 07:46:00,
2013-11-23 01:50:00,42.6,42.1,30.23,WNW,302,7.0,18.2,98,0.00,,---,0.00,0.00,VWS V14.01,2013-11-23 07:50:00,
2013-11-23 01:51:00,42.6,42.1,30.23,NW,313,17.0,18.2,98,0.00,,---,0.00,0.00,VWS V14.01,2013-11-23 07:51:00,
2013-11-23 01:55:00,42.5,42.0,30.23,North,349,11.0,18.2,98,0.00,,---,0.00,0.00,VWS V14.01,2013-11-23 07:55:00,
2013-11-23 01:56:00,42.6,42.1,30.23,North,355,6.0,16.2,98,0.00,,---,0.00,0.00,VWS V14.01,2013-11-23 07:56:00,
2013-11-23 02:00:00,42.3,41.8,30.23,NW,313,8.0,16.2,98,0.00,,---,0.00,0.00,VWS V14.01,2013-11-23 08:00:00,
2013-11-23 02:01:00,42.6,42.1,30.23,NNW,336,12.0,17.2,98,0.00,,---,0.00,0.00,VWS V14.01,2013-11-23 08:01:00,
2013-11-23 02:05:00,42.5,42.2,30.23,NNW,341,6.0,15.2,99,0.00,,---,0.00,0.00,VWS V14.01,2013-11-23 08:05:00,
2013-11-23 02:06:00,42.5,42.0,30.23,NNW,345,6.0,20.2,98,0.00,,---,0.00,0.00,VWS V14.01,2013-11-23 08:06:00,
2013-11-23 02:10:00,42.5,42.2,30.23,WNW,303,7.0,18.2,99,0.00,,---,0.00,0.00,VWS V14.01,2013-11-23 08:10:00,
2013-11-23 02:11:00,42.5,42.0,30.23,NNW,330,13.0,18.2,98,0.00,,---,0.00,0.00,VWS V14.01,2013-11-23 08:11:00,
2013-11-23 02:15:00,42.3,41.8,30.23,NW,318,4.0,22.2,98,0.00,,---,0.00,0.00,VWS V14.01,2013-11-23 08:15:00,
2013-11-23 02:16:00,42.3,41.8,30.24,NNW,338,7.0,17.2,98,0.00,,---,0.00,0.00,VWS V14.01,2013-11-23 08:16:00,
2013-11-23 02:20:00,42.1,41.8,30.23,NW,312,3.0,13.2,99,0.00,,---,0.00,0.00,VWS V14.01,2013-11-23 08:20:00,
2013-11-23 02:21:00,42.3,41.8,30.24,NNW,339,15.0,16.2,98,0.00,,---,0.00,0.00,VWS V14.01,2013-11-23 08:21:00,
2013-11-23 02:25:00,42.1,41.8,30.23,WNW,290,5.0,20.2,99,0.00,,---,0.00,0.00,VWS V14.01,2013-11-23 08:25:00,
2013-11-23 02:26:00,42.3,41.8,30.24,NW,317,10.0,16.2,98,0.00,,---,0.00,0.00,VWS V14.01,2013-11-23 08:26:00,
2013-11-23 02:30:00,41.8,41.5,30.22,NW,324,16.0,21.2,99,0.00,,---,0.00,0.00,VWS V14.01,2013-11-23 08:30:00,
2013-11-23 02:31:00,42.5,42.0,30.23,North,5,5.0,22.2,98,0.00,,---,0.00,0.00,VWS V14.01,2013-11-23 08:31:00,
2013-11-23 02:35:00,41.8,41.5,30.22,North,349,10.0,19.2,99,0.00,,---,0.00,0.00,VWS V14.01,2013-11-23 08:35:00,
2013-11-23 02:36:00,42.5,42.0,30.23,NNW,333,4.0,16.2,98,0.00,,---,0.00,0.00,VWS V14.01,2013-11-23 08:36:00,
2013-11-23 02:40:00,41.8,41.5,30.22,NW,309,17.0,22.2,99,0.00,,---,0.00,0.00,VWS V14.01,2013-11-23 08:40:00,
2013-11-23 02:41:00,42.6,42.1,30.23,NW,320,2.0,19.2,98,0.00,,---,0.00,0.00,VWS V14.01,2013-11-23 08:41:00,
2013-11-23 02:45:00,42.1,41.6,30.23,North,355,10.0,18.2,98,0.00,,---,0.00,0.00,VWS V14.01,2013-11-23 08:45:00,
2013-11-23 02:46:00,42.5,42.0,30.23,NW,312,3.0,14.2,98,0.00,,---,0.00,0.00,VWS V14.01,2013-11-23 08:46:00,
2013-11-23 02:50:00,42.1,41.6,30.23,NNW,333,7.0,19.2,98,0.00,,---,0.00,0.00,VWS V14.01,2013-11-23 08:50:00,
2013-11-23 02:51:00,42.6,42.1,30.23,NW,310,11.0,18.2,98,0.00,,---,0.00,0.00,VWS V14.01,2013-11-23 08:51:00,
2013-11-23 02:55:00,42.1,41.6,30.23,NW,317,5.0,22.2,98,0.00,,---,0.00,0.00,VWS V14.01,2013-11-23 08:55:00,
2013-11-23 02:56:00,42.5,42.0,30.23,NW,325,4.0,18.2,98,0.00,,---,0.00,0.00,VWS V14.01,2013-11-23 08:56:00,
2013-11-23 03:00:00,41.9,41.4,30.22,NW,304,6.0,22.2,98,0.00,,---,0.00,0.00,VWS V14.01,2013-11-23 09:00:00,
2013-11-23 03:01:00,42.3,41.8,30.23,NW,312,10.0,16.2,98,0.00,,---,0.00,0.00,VWS V14.01,2013-11-23 09:01:00,
2013-11-23 03:05:00,41.9,41.4,30.22,WNW,302,13.0,22.2,98,0.00,,---,0.00,0.00,VWS V14.01,2013-11-23 09:05:00,
2013-11-23 03:06:00,42.5,42.2,30.23,WNW,295,6.0,15.2,99,0.00,,---,0.00,0.00,VWS V14.01,2013-11-23 09:06:00,
2013-11-23 03:10:00,42.1,41.3,30.22,NW,311,12.0,23.2,97,0.00,,---,0.00,0.00,VWS V14.01,2013-11-23 09:10:00,
2013-11-23 03:11:00,42.5,42.2,30.23,NW,313,9.0,18.2,99,0.00,,---,0.00,0.00,VWS V14.01,2013-11-23 09:11:00,
2013-11-23 03:15:00,42.2,41.4,30.23,NW,309,9.0,18.2,97,0.00,,---,0.00,0.00,VWS V14.01,2013-11-23 09:15:00,
2013-11-23 03:16:00,42.3,41.8,30.23,WNW,289,12.0,22.2,98,0.00,,---,0.00,0.00,VWS V14.01,2013-11-23 09:16:00,
2013-11-23 03:20:00,42.3,41.5,30.23,WNW,287,10.0,18.2,97,0.00,,---,0.00,0.00,VWS V14.01,2013-11-23 09:20:00,
2013-11-23 03:21:00,42.1,41.8,30.23,WNW,291,9.0,13.2,99,0.00,,---,0.00,0.00,VWS V14.01,2013-11-23 09:21:00,
2013-11-23 03:25:00,42.2,41.4,30.23,North,351,12.0,19.2,97,0.00,,---,0.00,0.00,VWS V14.01,2013-11-23 09:25:00,
2013-11-23 03:26:00,42.1,41.8,30.23,NW,314,15.0,20.2,99,0.00,,---,0.00,0.00,VWS V14.01,2013-11-23 09:26:00,
2013-11-23 03:30:00,42.3,41.5,30.23,NW,314,9.0,19.2,97,0.00,,---,0.00,0.00,VWS V14.01,2013-11-23 09:30:00,
2013-11-23 03:31:00,41.8,41.5,30.22,NNW,330,16.0,20.2,99,0.00,,---,0.00,0.00,VWS V14.01,2013-11-23 09:31:00,
2013-11-23 03:35:00,42.3,41.5,30.23,NNW,335,14.0,15.2,97,0.00,,---,0.00,0.00,VWS V14.01,2013-11-23 09:35:00,
2013-11-23 03:36:00,41.8,41.5,30.22,NNW,329,10.0,19.2,99,0.00,,---,0.00,0.00,VWS V14.01,2013-11-23 09:36:00,
2013-11-23 03:40:00,42.3,41.5,30.23,North,355,17.0,18.2,97,0.00,,---,0.00,0.00,VWS V14.01,2013-11-23 09:40:00,
2013-11-23 03:41:00,41.8,41.5,30.22,North,355,10.0,22.2,99,0.00,,---,0.00,0.00,VWS V14.01,2013-11-23 09:41:00,
2013-11-23 03:45:00,42.3,41.5,30.22,NNW,329,6.0,18.2,97,0.00,,---,0.00,0.00,VWS V14.01,2013-11-23 09:45:00,
2013-11-23 03:46:00,42.1,41.6,30.23,NNW,327,3.0,18.2,98,0.00,,---,0.00,0.00,VWS V14.01,2013-11-23 09:46:00,
2013-11-23 03:50:00,42.2,41.1,30.22,North,355,11.0,21.2,96,0.00,,---,0.00,0.00,VWS V14.01,2013-11-23 09:50:00,
2013-11-23 03:51:00,42.1,41.6,30.23,NNW,330,6.0,19.2,98,0.00,,---,0.00,0.00,VWS V14.01,2013-11-23 09:51:00,
2013-11-23 03:55:00,42.2,41.1,30.22,NNW,336,9.0,19.2,96,0.00,,---,0.00,0.00,VWS V14.01,2013-11-23 09:55:00,
2013-11-23 03:56:00,42.1,41.6,30.23,NNW,331,9.0,22.2,98,0.00,,---,0.00,0.00,VWS V14.01,2013-11-23 09:56:00,
2013-11-23 04:00:00,42.2,41.1,30.22,NNW,344,6.0,19.2,96,0.00,,---,0.00,0.00,VWS V14.01,2013-11-23 10:00:00,
2013-11-23 04:01:00,41.9,41.4,30.22,WNW,297,16.0,22.2,98,0.00,,---,0.00,0.00,VWS V14.01,2013-11-23 10:01:00,
2013-11-23 04:05:00,42.2,40.9,30.22,NW,313,10.0,21.2,95,0.00,,---,0.00,0.00,VWS V14.01,2013-11-23 10:05:00,
2013-11-23 04:06:00,41.9,41.4,30.22,NW,319,12.0,18.2,98,0.00,,---,0.00,0.00,VWS V14.01,2013-11-23 10:06:00,
2013-11-23 04:10:00,42.2,40.9,30.22,NW,325,7.0,25.2,95,0.01,,---,0.01,0.00,VWS V14.01,2013-11-23 10:10:00,
2013-11-23 04:11:00,42.1,41.6,30.22,WNW,292,17.0,23.2,98,0.00,,---,0.00,0.00,VWS V14.01,2013-11-23 10:11:00,
2013-11-23 04:15:00,42.2,40.9,30.22,NNW,348,9.0,20.2,95,0.01,,---,0.01,0.00,VWS V14.01,2013-11-23 10:15:00,
2013-11-23 04:16:00,42.2,41.4,30.23,NW,325,3.0,18.2,97,0.00,,---,0.00,0.00,VWS V14.01,2013-11-23 10:16:00,
2013-11-23 04:20:00,42.3,41.0,30.22,NNW,348,5.0,18.2,95,0.01,,---,0.01,0.00,VWS V14.01,2013-11-23 10:20:00,
2013-11-23 04:21:00,42.3,41.5,30.23,NNW,327,3.0,18.2,97,0.00,,---,0.00,0.00,VWS V14.01,2013-11-23 10:21:00,
2013-11-23 04:25:00,42.6,41.3,30.22,NNW,339,14.0,18.2,95,0.01,,---,0.01,0.00,VWS V14.01,2013-11-23 10:25:00,
2013-11-23 04:26:00,42.2,41.4,30.23,WNW,285,10.0,19.2,97,0.00,,---,0.00,0.00,VWS V14.01,2013-11-23 10:26:00,
2013-11-23 04:30:00,42.5,41.2,30.22,NW,308,16.0,19.2,95,0.01,,---,0.01,0.00,VWS V14.01,2013-11-23 10:30:00,
2013-11-23 04:31:00,42.3,41.5,30.23,NW,304,12.0,19.2,97,0.00,,---,0.00,0.00,VWS V14.01,2013-11-23 10:31:00,
2013-11-23 04:35:00,42.5,41.2,30.22,North,11,14.0,19.2,95,0.01,,---,0.01,0.00,VWS V14.01,2013-11-23 10:35:00,
2013-11-23 04:36:00,42.3,41.5,30.23,NNW,330,3.0,15.2,97,0.00,,---,0.00,0.00,VWS V14.01,2013-11-23 10:36:00,
2013-11-23 04:40:00,42.5,41.2,30.22,NW,326,12.0,21.2,95,0.01,,---,0.01,0.00,VWS V14.01,2013-11-23 10:40:00,
2013-11-23 04:41:00,42.3,41.5,30.23,NW,326,15.0,18.2,97,0.00,,---,0.00,0.00,VWS V14.01,2013-11-23 10:41:00,
2013-11-23 04:45:00,42.3,41.0,30.23,NW,325,15.0,25.2,95,0.01,,---,0.01,0.00,VWS V14.01,2013-11-23 10:45:00,
2013-11-23 04:46:00,42.3,41.5,30.22,NNW,333,6.0,18.2,97,0.00,,---,0.00,0.00,VWS V14.01,2013-11-23 10:46:00,
2013-11-23 04:50:00,42.5,41.2,30.23,WNW,292,14.0,19.2,95,0.01,,---,0.01,0.00,VWS V14.01,2013-11-23 10:50:00,
2013-11-23 04:51:00,42.2,41.1,30.22,NE,42,5.0,21.2,96,0.00,,---,0.00,0.00,VWS V14.01,2013-11-23 10:51:00,
2013-11-23 04:55:00,42.3,41.0,30.23,NNW,333,10.0,23.2,95,0.01,,---,0.01,0.00,VWS V14.01,2013-11-23 10:55:00,
2013-11-23 04:56:00,42.2,41.1,30.22,WNW,298,7.0,19.2,96,0.00,,---,0.00,0.00,VWS V14.01,2013-11-23 10:56:00,
2013-11-23 05:00:00,42.3,41.0,30.23,NNW,329,6.0,23.2,95,0.01,,---,0.01,0.00,VWS V14.01,2013-11-23 11:00:00,
2013-11-23 05:01:00,42.2,41.1,30.22,NW,311,14.0,19.2,96,0.00,,---,0.00,0.00,VWS V14.01,2013-11-23 11:01:00,
2013-11-23 05:05:00,42.3,41.0,30.23,North,355,10.0,21.2,95,0.01,,---,0.01,0.00,VWS V14.01,2013-11-23 11:05:00,
2013-11-23 05:06:00,42.2,40.9,30.22,NW,318,7.0,19.2,95,0.00,,---,0.00,0.00,VWS V14.01,2013-11-23 11:06:00,
2013-11-23 05:10:00,42.5,41.2,30.23,NW,326,6.0,20.2,95,0.01,,---,0.01,0.00,VWS V14.01,2013-11-23 11:10:00,
2013-11-23 05:11:00,42.2,40.9,30.22,WNW,282,11.0,25.2,95,0.01,,---,0.01,0.00,VWS V14.01,2013-11-23 11:11:00,
2013-11-23 05:15:00,42.2,40.9,30.22,NNW,336,13.0,20.2,95,0.01,,---,0.01,0.00,VWS V14.01,2013-11-23 11:15:00,
2013-11-23 05:20:00,42.3,41.0,30.22,North,5,9.0,18.2,95,0.01,,---,0.01,0.00,VWS V14.01,2013-11-23 11:20:00,
2013-11-23 05:25:00,42.6,41.3,30.22,NW,311,4.0,18.2,95,0.01,,---,0.01,0.00,VWS V14.01,2013-11-23 11:25:00,
2013-11-23 05:30:00,42.6,41.3,30.22,North,5,13.0,19.2,95,0.01,,---,0.01,0.00,VWS V14.01,2013-11-23 11:30:00,
2013-11-23 05:35:00,42.5,41.2,30.22,NW,317,6.0,19.2,95,0.01,,---,0.01,0.00,VWS V14.01,2013-11-23 11:35:00,
2013-11-23 05:40:00,42.5,41.2,30.22,NW,317,10.0,21.2,95,0.01,,---,0.01,0.00,VWS V14.01,2013-11-23 11:40:00,
2013-11-23 05:45:00,42.3,41.0,30.23,NW,311,15.0,25.2,95,0.01,,---,0.01,0.00,VWS V14.01,2013-11-23 11:45:00,
2013-11-23 05:50:00,42.5,41.2,30.23,North,355,15.0,19.2,95,0.01,,---,0.01,0.00,VWS V14.01,2013-11-23 11:50:00,
2013-11-23 05:55:00,42.3,41.0,30.23,NW,309,13.0,23.2,95,0.01,,---,0.01,0.00,VWS V14.01,2013-11-23 11:55:00,
2013-11-23 06:00:00,42.3,41.0,30.23,NNW,336,9.0,23.2,95,0.01,,---,0.01,0.00,VWS V14.01,2013-11-23 12:00:00,
2013-11-23 06:05:00,42.3,41.0,30.23,NW,326,18.0,21.2,95,0.01,,---,0.01,0.00,VWS V14.01,2013-11-23 12:05:00,
2013-11-23 06:10:00,42.5,41.2,30.23,North,355,14.0,19.2,95,0.01,,---,0.01,0.00,VWS V14.01,2013-11-23 12:10:00,
2013-11-23 06:15:00,42.6,41.3,30.23,NNW,342,8.0,19.2,95,0.00,,---,0.01,0.00,VWS V14.01,2013-11-23 12:15:00,
2013-11-23 06:20:00,42.5,41.2,30.23,NNW,345,11.0,21.2,95,0.00,,---,0.01,0.00,VWS V14.01,2013-11-23 12:20:00,
2013-11-23 06:25:00,42.5,41.2,30.23,NW,309,11.0,19.2,95,0.00,,---,0.01,0.00,VWS V14.01,2013-11-23 12:25:00,
2013-11-23 06:30:00,42.5,41.2,30.24,NNW,342,12.0,24.2,95,0.00,,---,0.01,0.00,VWS V14.01,2013-11-23 12:30:00,
2013-11-23 06:35:00,42.6,41.5,30.24,NNW,335,6.0,18.2,96,0.00,,---,0.01,0.00,VWS V14.01,2013-11-23 12:35:00,
2013-11-23 06:40:00,42.6,41.3,30.24,WNW,302,8.0,20.2,95,0.00,,---,0.01,0.00,VWS V14.01,2013-11-23 12:40:00,
2013-11-23 06:45:00,42.6,41.5,30.25,NNW,331,12.0,20.2,96,0.00,,---,0.01,0.00,VWS V14.01,2013-11-23 12:45:00,
2013-11-23 06:50:00,42.6,41.5,30.25,NW,309,15.0,20.2,96,0.00,,---,0.01,0.00,VWS V14.01,2013-11-23 12:50:00,
2013-11-23 06:55:00,42.8,41.7,30.25,North,355,6.0,24.2,96,0.00,,---,0.01,0.00,VWS V14.01,2013-11-23 12:55:00,
2013-11-23 07:00:00,42.8,41.5,30.26,NNW,331,7.0,19.2,95,0.00,,---,0.01,0.00,VWS V14.01,2013-11-23 13:00:00,
2013-11-23 07:05:00,42.8,41.5,30.26,NW,310,7.0,22.2,95,0.00,,---,0.01,0.00,VWS V14.01,2013-11-23 13:05:00,
2013-11-23 07:10:00,42.8,41.5,30.26,NW,313,5.0,17.2,95,0.00,,---,0.01,0.00,VWS V14.01,2013-11-23 13:10:00,
2013-11-23 07:15:00,42.9,41.6,30.27,NNW,338,9.0,19.2,95,0.00,,---,0.01,7.00,VWS V14.01,2013-11-23 13:15:00,
2013-11-23 07:20:00,42.9,41.6,30.27,NNW,329,13.0,16.2,95,0.00,,---,0.01,9.00,VWS V14.01,2013-11-23 13:20:00,
2013-11-23 07:25:00,42.9,41.6,30.27,NNW,332,5.0,22.2,95,0.00,,---,0.01,11.00,VWS V14.01,2013-11-23 13:25:00,
2013-11-23 07:30:00,42.9,41.6,30.29,NW,312,6.0,18.2,95,0.00,,---,0.01,11.00,VWS V14.01,2013-11-23 13:30:00,
2013-11-23 07:35:00,43.1,41.8,30.29,WNW,301,6.0,17.2,95,0.00,,---,0.01,14.00,VWS V14.01,2013-11-23 13:35:00,
2013-11-23 07:40:00,43.1,41.8,30.29,NW,325,8.0,17.2,95,0.00,,---,0.01,14.00,VWS V14.01,2013-11-23 13:40:00,
2013-11-23 07:45:00,43.1,41.8,30.30,NNW,344,7.0,19.2,95,0.00,,---,0.01,16.00,VWS V14.01,2013-11-23 13:45:00,
2013-11-23 07:50:00,43.2,41.9,30.30,North,351,6.0,19.2,95,0.00,,---,0.01,19.00,VWS V14.01,2013-11-23 13:50:00,
2013-11-23 07:55:00,43.2,41.9,30.30,NW,321,11.0,20.2,95,0.00,,---,0.01,26.00,VWS V14.01,2013-11-23 13:55:00,
2013-11-23 08:00:00,43.2,41.9,30.30,NNW,332,9.0,18.2,95,0.00,,---,0.01,30.00,VWS V14.01,2013-11-23 14:00:00,
2013-11-23 08:05:00,43.2,41.9,30.30,WNW,303,12.0,20.2,95,0.00,,---,0.01,30.00,VWS V14.01,2013-11-23 14:05:00,
2013-11-23 08:10:00,43.2,41.9,30.30,NNE,14,7.0,16.2,95,0.00,,---,0.01,40.00,VWS V14.01,2013-11-23 14:10:00,
2013-11-23 08:15:00,43.3,42.0,30.29,NNW,344,7.0,19.2,95,0.00,,---,0.01,42.00,VWS V14.01,2013-11-23 14:15:00,
2013-11-23 08:20:00,43.3,42.0,30.29,NNW,336,7.0,19.2,95,0.00,,---,0.01,54.00,VWS V14.01,2013-11-23 14:20:00,
2013-11-23 08:25:00,43.3,42.0,30.29,NW,317,13.0,19.2,95,0.00,,---,0.01,65.00,VWS V14.01,2013-11-23 14:25:00,
2013-11-23 08:30:00,43.5,42.2,30.29,NW,317,8.0,23.2,95,0.00,,---,0.01,65.00,VWS V14.01,2013-11-23 14:30:00,
2013-11-23 08:35:00,43.5,42.2,30.29,WNW,301,7.0,17.2,95,0.00,,---,0.01,72.00,VWS V14.01,2013-11-23 14:35:00,
2013-11-23 08:40:00,43.6,42.3,30.29,NW,308,5.0,22.2,95,0.00,,---,0.01,98.00,VWS V14.01,2013-11-23 14:40:00,
2013-11-23 08:45:00,43.6,42.0,30.29,NW,324,10.0,24.2,94,0.00,,---,0.01,79.00,VWS V14.01,2013-11-23 14:45:00,
2013-11-23 08:50:00,43.8,42.2,30.29,NNW,334,6.0,19.2,94,0.00,,---,0.01,56.00,VWS V14.01,2013-11-23 14:50:00,
2013-11-23 08:55:00,43.8,42.2,30.29,NW,313,13.0,21.2,94,0.00,,---,0.01,67.00,VWS V14.01,2013-11-23 14:55:00,
2013-11-23 09:00:00,43.9,42.3,30.29,North,5,11.0,21.2,94,0.00,,---,0.01,70.00,VWS V14.01,2013-11-23 15:00:00,
2013-11-23 09:05:00,44.1,42.5,30.29,NNW,334,7.0,17.2,94,0.00,,---,0.01,84.00,VWS V14.01,2013-11-23 15:05:00,
2013-11-23 09:10:00,44.1,42.5,30.29,NW,319,9.0,17.2,94,0.00,,---,0.01,86.00,VWS V14.01,2013-11-23 15:10:00,
2013-11-23 09:15:00,44.1,42.5,30.29,NNW,343,10.0,24.2,94,0.00,,---,0.01,76.00,VWS V14.01,2013-11-23 15:15:00,
2013-11-23 09:20:00,44.2,42.6,30.29,NNW,347,16.0,20.2,94,0.00,,---,0.01,76.00,VWS V14.01,2013-11-23 15:20:00,
2013-11-23 09:25:00,44.1,42.2,30.29,NNW,341,13.0,23.2,93,0.00,,---,0.01,86.00,VWS V14.01,2013-11-23 15:25:00,
2013-11-23 09:30:00,44.1,42.2,30.30,NW,325,14.0,18.2,93,0.00,,---,0.01,95.00,VWS V14.01,2013-11-23 15:30:00,
2013-11-23 09:35:00,44.3,42.4,30.30,NNW,327,12.0,16.2,93,0.00,,---,0.01,88.00,VWS V14.01,2013-11-23 15:35:00,
2013-11-23 09:40:00,44.3,42.4,30.30,NNW,348,6.0,16.2,93,0.00,,---,0.01,62.00,VWS V14.01,2013-11-23 15:40:00,
2013-11-23 09:45:00,44.5,42.6,30.32,NW,317,6.0,17.2,93,0.00,,---,0.01,72.00,VWS V14.01,2013-11-23 15:45:00,
2013-11-23 09:50:00,44.5,42.6,30.32,NNW,331,12.0,15.2,93,0.00,,---,0.01,65.00,VWS V14.01,2013-11-23 15:50:00,
2013-11-23 09:55:00,44.5,42.6,30.32,NW,304,10.0,17.2,93,0.00,,---,0.01,60.00,VWS V14.01,2013-11-23 15:55:00,
2013-11-23 10:00:00,44.5,42.6,30.32,NW,325,11.0,19.2,93,0.00,,---,0.01,69.00,VWS V14.01,2013-11-23 16:00:00,
2013-11-23 10:05:00,44.5,42.6,30.32,NNW,344,6.0,19.2,93,0.00,,---,0.01,98.00,VWS V14.01,2013-11-23 16:05:00,
2013-11-23 10:10:00,44.5,42.6,30.32,NW,319,4.0,17.2,93,0.00,,---,0.01,88.00,VWS V14.01,2013-11-23 16:10:00,
2013-11-23 10:15:00,44.6,42.7,30.32,North,360,5.0,15.2,93,0.00,,---,0.01,86.00,VWS V14.01,2013-11-23 16:15:00,
2013-11-23 10:20:00,44.6,43.0,30.32,North,349,7.0,19.2,94,0.00,,---,0.01,97.00,VWS V14.01,2013-11-23 16:20:00,
2013-11-23 10:25:00,44.6,43.0,30.32,NW,317,6.0,15.2,94,0.00,,---,0.01,95.00,VWS V14.01,2013-11-23 16:25:00,
2013-11-23 10:30:00,44.8,43.2,30.32,NNW,333,6.0,18.2,94,0.00,,---,0.01,109.00,VWS V14.01,2013-11-23 16:30:00,
2013-11-23 10:35:00,44.8,43.2,30.32,North,355,5.0,13.2,94,0.00,,---,0.01,90.00,VWS V14.01,2013-11-23 16:35:00,
2013-11-23 10:40:00,44.6,43.3,30.32,NNW,330,13.0,15.2,95,0.00,,---,0.01,83.00,VWS V14.01,2013-11-23 16:40:00,
2013-11-23 10:45:00,44.6,43.3,30.30,NNW,337,4.0,14.2,95,0.00,,---,0.01,97.00,VWS V14.01,2013-11-23 16:45:00,
2013-11-23 10:50:00,44.8,43.5,30.30,NW,325,5.0,16.2,95,0.00,,---,0.01,84.00,VWS V14.01,2013-11-23 16:50:00,
2013-11-23 10:55:00,44.8,43.5,30.30,NNW,327,10.0,17.2,95,0.00,,---,0.01,111.00,VWS V14.01,2013-11-23 16:55:00,
2013-11-23 11:00:00,44.8,43.5,30.30,NW,310,10.0,14.2,95,0.00,,---,0.01,91.00,VWS V14.01,2013-11-23 17:00:00,
2013-11-23 11:05:00,44.8,43.5,30.30,North,355,11.0,18.2,95,0.00,,---,0.01,104.00,VWS V14.01,2013-11-23 17:05:00,
2013-11-23 11:10:00,44.9,43.6,30.30,NW,325,12.0,17.2,95,0.00,,---,0.01,116.00,VWS V14.01,2013-11-23 17:10:00,
2013-11-23 11:15:00,44.8,43.5,30.30,NNW,333,10.0,19.2,95,0.00,,---,0.01,123.00,VWS V14.01,2013-11-23 17:15:00,
2013-11-23 11:20:00,44.9,43.8,30.30,North,5,10.0,15.2,96,0.00,,---,0.01,107.00,VWS V14.01,2013-11-23 17:20:00,
2013-11-23 11:25:00,45.1,44.0,30.30,North,11,6.0,17.2,96,0.00,,---,0.01,165.00,VWS V14.01,2013-11-23 17:25:00,
2013-11-23 11:30:00,45.1,44.0,30.29,North,9,7.0,16.2,96,0.00,,---,0.01,155.00,VWS V14.01,2013-11-23 17:30:00,
2013-11-23 11:35:00,45.1,44.0,30.29,NW,311,10.0,22.2,96,0.00,,---,0.01,137.00,VWS V14.01,2013-11-23 17:35:00,
2013-11-23 11:40:00,45.2,44.1,30.29,NW,320,6.0,16.2,96,0.00,,---,0.01,158.00,VWS V14.01,2013-11-23 17:40:00,
2013-11-23 11:45:00,45.4,44.0,30.28,NNW,340,6.0,16.2,95,0.00,,---,0.01,176.00,VWS V14.01,2013-11-23 17:45:00,
2013-11-23 11:50:00,45.7,44.3,30.28,NW,317,5.0,12.2,95,0.00,,---,0.01,167.00,VWS V14.01,2013-11-23 17:50:00,
2013-11-23 11:55:00,45.8,44.5,30.28,NW,322,6.0,15.2,95,0.00,,---,0.01,169.00,VWS V14.01,2013-11-23 17:55:00,
2013-11-23 12:00:00,46.0,44.4,30.27,North,350,9.0,16.2,94,0.00,,---,0.01,178.00,VWS V14.01,2013-11-23 18:00:00,
2013-11-23 12:05:00,46.1,44.5,30.27,NNW,332,2.0,17.2,94,0.00,,---,0.01,179.00,VWS V14.01,2013-11-23 18:05:00,
2013-11-23 12:10:00,46.4,44.5,30.27,NW,316,12.0,17.2,93,0.00,,---,0.01,163.00,VWS V14.01,2013-11-23 18:10:00,
2013-11-23 12:15:00,46.4,44.5,30.26,NW,325,12.0,15.2,93,0.00,,---,0.01,153.00,VWS V14.01,2013-11-23 18:15:00,
2013-11-23 12:20:00,46.2,44.3,30.26,NNW,335,8.0,18.2,93,0.00,,---,0.01,162.00,VWS V14.01,2013-11-23 18:20:00,
2013-11-23 12:25:00,46.4,44.5,30.26,NNW,342,5.0,18.2,93,0.00,,---,0.01,160.00,VWS V14.01,2013-11-23 18:25:00,
2013-11-23 12:30:00,46.4,44.2,30.26,NNW,342,8.0,17.2,92,0.00,,---,0.01,156.00,VWS V14.01,2013-11-23 18:30:00,
2013-11-23 12:35:00,46.5,44.3,30.25,NNW,330,12.0,17.2,92,0.00,,---,0.01,127.00,VWS V14.01,2013-11-23 18:35:00,
2013-11-23 12:40:00,46.5,44.3,30.25,NW,304,7.0,15.2,92,0.00,,---,0.01,118.00,VWS V14.01,2013-11-23 18:40:00,
2013-11-23 12:45:00,46.5,44.3,30.25,WNW,302,2.0,21.2,92,0.00,,---,0.01,97.00,VWS V14.01,2013-11-23 18:45:00,
2013-11-23 12:50:00,46.7,44.5,30.25,NW,312,5.0,16.2,92,0.00,,---,0.01,102.00,VWS V14.01,2013-11-23 18:50:00,
2013-11-23 12:55:00,46.7,44.5,30.25,NNW,333,5.0,16.2,92,0.00,,---,0.01,90.00,VWS V14.01,2013-11-23 18:55:00,
2013-11-23 13:00:00,46.7,44.5,30.25,NW,313,13.0,16.2,92,0.00,,---,0.01,100.00,VWS V14.01,2013-11-23 19:00:00,
2013-11-23 13:05:00,46.7,44.5,30.25,WNW,299,10.0,15.2,92,0.00,,---,0.01,97.00,VWS V14.01,2013-11-23 19:05:00,
2013-11-23 13:10:00,46.7,44.5,30.25,NNW,327,7.0,15.2,92,0.00,,---,0.01,98.00,VWS V14.01,2013-11-23 19:10:00,
2013-11-23 13:15:00,46.5,44.3,30.25,NW,315,5.0,16.2,92,0.00,,---,0.01,109.00,VWS V14.01,2013-11-23 19:15:00,
2013-11-23 13:20:00,46.5,44.0,30.24,NNW,347,5.0,19.2,91,0.00,,---,0.01,118.00,VWS V14.01,2013-11-23 19:20:00,
2013-11-23 13:25:00,46.5,44.0,30.24,North,355,10.0,19.2,91,0.00,,---,0.01,116.00,VWS V14.01,2013-11-23 19:25:00,
2013-11-23 13:30:00,46.5,44.0,30.24,WNW,293,11.0,17.2,91,0.00,,---,0.01,111.00,VWS V14.01,2013-11-23 19:30:00,
2013-11-23 13:35:00,46.7,44.2,30.24,NNW,331,11.0,18.2,91,0.00,,---,0.01,121.00,VWS V14.01,2013-11-23 19:35:00,
2013-11-23 13:40:00,46.7,44.2,30.24,North,355,6.0,20.2,91,0.00,,---,0.01,125.00,VWS V14.01,2013-11-23 19:40:00,
2013-11-23 13:45:00,46.7,44.2,30.24,WNW,292,6.0,15.2,91,0.00,,---,0.01,113.00,VWS V14.01,2013-11-23 19:45:00,
2013-11-23 13:50:00,46.5,44.0,30.23,NNW,333,4.0,21.2,91,0.00,,---,0.01,118.00,VWS V14.01,2013-11-23 19:50:00,
2013-11-23 13:55:00,46.8,44.3,30.23,WNW,297,4.0,16.2,91,0.00,,---,0.01,114.00,VWS V14.01,2013-11-23 19:55:00,
2013-11-23 14:00:00,46.8,44.3,30.23,North,355,12.0,14.2,91,0.00,,---,0.01,107.00,VWS V14.01,2013-11-23 20:00:00,
2013-11-23 14:05:00,47.0,44.5,30.22,West,275,4.0,14.2,91,0.00,,---,0.01,134.00,VWS V14.01,2013-11-23 20:05:00,
2013-11-23 14:10:00,46.8,44.0,30.22,NW,317,8.0,17.2,90,0.00,,---,0.01,123.00,VWS V14.01,2013-11-23 20:10:00,
2013-11-23 14:15:00,47.0,44.5,30.22,NNW,339,4.0,16.2,91,0.00,,---,0.01,105.00,VWS V14.01,2013-11-23 20:15:00,
2013-11-23 14:20:00,47.1,44.3,30.21,North,355,6.0,18.2,90,0.00,,---,0.01,91.00,VWS V14.01,2013-11-23 20:20:00,
2013-11-23 14:25:00,47.1,44.3,30.21,NNW,346,11.0,15.2,90,0.00,,---,0.01,81.00,VWS V14.01,2013-11-23 20:25:00,
2013-11-23 14:30:00,47.0,43.9,30.21,NNW,333,11.0,16.2,89,0.00,,---,0.01,84.00,VWS V14.01,2013-11-23 20:30:00,
2013-11-23 14:35:00,47.0,44.2,30.22,NNW,335,11.0,19.2,90,0.00,,---,0.01,69.00,VWS V14.01,2013-11-23 20:35:00,
2013-11-23 14:40:00,46.7,43.6,30.22,NW,313,17.0,20.2,89,0.00,,---,0.01,60.00,VWS V14.01,2013-11-23 20:40:00,
2013-11-23 14:45:00,46.7,43.6,30.22,NW,321,10.0,19.2,89,0.00,,---,0.01,51.00,VWS V14.01,2013-11-23 20:45:00,
2013-11-23 14:50:00,46.7,43.6,30.23,NNW,336,4.0,16.2,89,0.00,,---,0.01,58.00,VWS V14.01,2013-11-23 20:50:00,
2013-11-23 14:55:00,46.7,43.6,30.23,NNW,346,13.0,18.2,89,0.00,,---,0.01,56.00,VWS V14.01,2013-11-23 20:55:00,
2013-11-23 15:00:00,46.7,43.6,30.23,North,5,9.0,18.2,89,0.00,,---,0.01,46.00,VWS V14.01,2013-11-23 21:00:00,
2013-11-23 15:05:00,46.8,43.7,30.23,NW,326,4.0,14.2,89,0.00,,---,0.01,42.00,VWS V14.01,2013-11-23 21:05:00,
2013-11-23 15:10:00,46.8,43.7,30.23,NNW,331,5.0,15.2,89,0.00,,---,0.01,44.00,VWS V14.01,2013-11-23 21:10:00,
2013-11-23 15:15:00,46.7,43.6,30.23,NNW,332,6.0,18.2,89,0.00,,---,0.01,44.00,VWS V14.01,2013-11-23 21:15:00,
2013-11-23 15:20:00,46.5,43.4,30.24,NNW,329,12.0,19.2,89,0.00,,---,0.01,46.00,VWS V14.01,2013-11-23 21:20:00,
2013-11-23 15:25:00,46.5,43.4,30.24,North,355,11.0,19.2,89,0.00,,---,0.01,44.00,VWS V14.01,2013-11-23 21:25:00,
2013-11-23 15:30:00,46.8,43.7,30.24,NNW,342,4.0,14.2,89,0.00,,---,0.01,39.00,VWS V14.01,2013-11-23 21:30:00,
2013-11-23 15:35:00,46.8,43.4,30.24,WNW,303,5.0,16.2,88,0.00,,---,0.01,32.00,VWS V14.01,2013-11-23 21:35:00,
2013-11-23 15:40:00,46.8,43.4,30.24,NNW,348,2.0,15.2,88,0.00,,---,0.01,26.00,VWS V14.01,2013-11-23 21:40:00,
2013-11-23 15:45:00,46.7,43.3,30.24,NW,320,2.0,17.2,88,0.00,,---,0.01,23.00,VWS V14.01,2013-11-23 21:45:00,
2013-11-23 15:50:00,46.7,43.3,30.24,NNW,328,6.0,17.2,88,0.00,,---,0.01,23.00,VWS V14.01,2013-11-23 21:50:00,
2013-11-23 15:55:00,46.7,43.3,30.24,NW,317,5.0,17.2,88,0.00,,---,0.01,23.00,VWS V14.01,2013-11-23 21:55:00,
2013-11-23 16:00:00,46.7,43.3,30.24,NW,316,4.0,18.2,88,0.00,,---,0.01,23.00,VWS V14.01,2013-11-23 22:00:00,
2013-11-23 16:05:00,46.8,43.4,30.24,North,351,6.0,12.2,88,0.00,,---,0.01,23.00,VWS V14.01,2013-11-23 22:05:00,
2013-11-23 16:10:00,46.8,43.4,30.24,NNW,333,4.0,16.2,88,0.00,,---,0.01,23.00,VWS V14.01,2013-11-23 22:10:00,
2013-11-23 16:15:00,46.8,43.4,30.24,NNW,338,6.0,15.2,88,0.00,,---,0.01,19.00,VWS V14.01,2013-11-23 22:15:00,
2013-11-23 16:20:00,46.8,43.4,30.24,WNW,291,4.0,13.2,88,0.00,,---,0.01,18.00,VWS V14.01,2013-11-23 22:20:00,
2013-11-23 16:25:00,46.8,43.4,30.24,NNW,327,4.0,14.2,88,0.00,,---,0.01,19.00,VWS V14.01,2013-11-23 22:25:00,
2013-11-23 16:30:00,46.5,43.1,30.24,NNW,339,10.0,17.2,88,0.00,,---,0.01,21.00,VWS V14.01,2013-11-23 22:30:00,
2013-11-23 16:35:00,46.5,43.1,30.24,NW,317,5.0,14.2,88,0.00,,---,0.01,19.00,VWS V14.01,2013-11-23 22:35:00,
2013-11-23 16:40:00,46.5,43.1,30.24,North,351,6.0,15.2,88,0.00,,---,0.01,16.00,VWS V14.01,2013-11-23 22:40:00,
2013-11-23 16:45:00,46.5,43.1,30.24,NNW,328,17.0,18.2,88,0.00,,---,0.01,12.00,VWS V14.01,2013-11-23 22:45:00,
2013-11-23 16:50:00,46.4,43.0,30.24,NW,309,7.0,17.2,88,0.00,,---,0.01,9.00,VWS V14.01,2013-11-23 22:50:00,
2013-11-23 16:55:00,46.4,43.0,30.24,NNW,335,4.0,14.2,88,0.00,,---,0.01,9.00,VWS V14.01,2013-11-23 22:55:00,
2013-11-23 17:00:00,46.4,43.0,30.24,NNW,344,6.0,16.2,88,0.00,,---,0.01,9.00,VWS V14.01,2013-11-23 23:00:00,
2013-11-23 17:05:00,46.2,42.8,30.25,NW,314,6.0,16.2,88,0.00,,---,0.01,5.00,VWS V14.01,2013-11-23 23:05:00,
2013-11-23 17:09:00,46.2,42.8,30.25,NW,313,4.0,19.2,88,0.00,,---,0.01,5.00,VWS V14.01,2013-11-23 23:09:00,
2013-11-23 17:10:00,45.8,42.8,30.27,NW,311,5.0,16.2,89,0.00,,---,0.01,0.00,VWS V14.01,2013-11-23 23:10:00,
2013-11-23 17:14:00,46.2,42.8,30.25,WNW,298,10.0,16.2,88,0.00,,---,0.01,0.00,VWS V14.01,2013-11-23 23:14:00,
2013-11-23 17:15:00,45.8,42.8,30.27,NW,317,12.0,17.2,89,0.00,,---,0.01,0.00,VWS V14.01,2013-11-23 23:15:00,
2013-11-23 17:19:00,46.2,42.8,30.26,North,11,9.0,13.2,88,0.00,,---,0.01,0.00,VWS V14.01,2013-11-23 23:19:00,
2013-11-23 17:20:00,46.0,43.2,30.27,WNW,302,11.0,13.2,90,0.00,,---,0.01,0.00,VWS V14.01,2013-11-23 23:20:00,
2013-11-23 17:24:00,46.2,42.8,30.26,North,355,11.0,16.2,88,0.00,,---,0.01,0.00,VWS V14.01,2013-11-23 23:24:00,
2013-11-23 17:25:00,45.8,43.0,30.27,NW,316,16.0,21.2,90,0.00,,---,0.01,0.00,VWS V14.01,2013-11-23 23:25:00,
2013-11-23 17:29:00,46.2,42.8,30.26,NNW,343,7.0,12.2,88,0.00,,---,0.01,0.00,VWS V14.01,2013-11-23 23:29:00,
2013-11-23 17:30:00,45.7,42.9,30.27,NW,315,7.0,19.2,90,0.00,,---,0.01,0.00,VWS V14.01,2013-11-23 23:30:00,
2013-11-23 17:34:00,46.2,42.8,30.26,NNW,333,9.0,19.2,88,0.00,,---,0.01,0.00,VWS V14.01,2013-11-23 23:34:00,
2013-11-23 17:35:00,45.5,42.7,30.27,NNW,329,4.0,16.2,90,0.00,,---,0.01,0.00,VWS V14.01,2013-11-23 23:35:00,
2013-11-23 17:39:00,46.2,42.8,30.26,NW,313,10.0,16.2,88,0.00,,---,0.01,0.00,VWS V14.01,2013-11-23 23:39:00,
2013-11-23 17:40:00,45.5,42.7,30.27,NNW,331,13.0,15.2,90,0.00,,---,0.01,0.00,VWS V14.01,2013-11-23 23:40:00,
2013-11-23 17:44:00,46.2,43.1,30.26,WNW,288,12.0,13.2,89,0.00,,---,0.01,0.00,VWS V14.01,2013-11-23 23:44:00,
2013-11-23 17:45:00,45.5,42.7,30.27,NNW,345,9.0,18.2,90,0.00,,---,0.01,0.00,VWS V14.01,2013-11-23 23:45:00,
2013-11-23 17:49:00,46.2,43.1,30.26,NW,323,5.0,14.2,89,0.00,,---,0.01,0.00,VWS V14.01,2013-11-23 23:49:00,
2013-11-23 17:50:00,45.7,42.9,30.27,NNW,335,11.0,15.2,90,0.00,,---,0.01,0.00,VWS V14.01,2013-11-23 23:50:00,
2013-11-23 17:54:00,46.2,43.1,30.26,NW,321,10.0,17.2,89,0.00,,---,0.01,0.00,VWS V14.01,2013-11-23 23:54:00,
2013-11-23 17:55:00,45.7,42.9,30.27,NW,319,6.0,18.2,90,0.00,,---,0.01,0.00,VWS V14.01,2013-11-23 23:55:00,
2013-11-23 17:59:00,46.1,43.0,30.26,NNW,333,5.0,15.2,89,0.00,,---,0.01,0.00,VWS V14.01,2013-11-23 23:59:00,
2013-11-23 18:00:00,45.7,43.2,30.27,NNW,333,6.0,17.2,91,0.00,,---,0.01,0.00,VWS V14.01,2013-11-24 00:00:00,
2013-11-23 18:04:00,46.0,43.0,30.27,NNW,327,5.0,18.2,89,0.00,,---,0.01,0.00,VWS V14.01,2013-11-24 00:04:00,
2013-11-23 18:05:00,45.7,42.9,30.27,NW,313,11.0,18.2,90,0.00,,---,0.01,0.00,VWS V14.01,2013-11-24 00:05:00,
2013-11-23 18:09:00,45.8,42.8,30.27,NW,309,3.0,14.2,89,0.00,,---,0.01,0.00,VWS V14.01,2013-11-24 00:09:00,
2013-11-23 18:10:00,45.7,42.9,30.27,NW,321,12.0,22.2,90,0.00,,---,0.01,0.00,VWS V14.01,2013-11-24 00:10:00,
2013-11-23 18:14:00,45.8,42.8,30.27,North,355,7.0,15.2,89,0.00,,---,0.01,0.00,VWS V14.01,2013-11-24 00:14:00,
2013-11-23 18:15:00,45.8,42.8,30.27,NNW,333,11.0,19.2,89,0.00,,---,0.01,0.00,VWS V14.01,2013-11-24 00:15:00,
2013-11-23 18:19:00,45.8,42.8,30.27,NW,321,5.0,13.2,89,0.00,,---,0.01,0.00,VWS V14.01,2013-11-24 00:19:00,
2013-11-23 18:20:00,45.7,42.7,30.27,North,350,18.0,23.2,89,0.00,,---,0.01,0.00,VWS V14.01,2013-11-24 00:20:00,
2013-11-23 18:24:00,46.0,43.2,30.27,NNW,329,13.0,21.2,90,0.00,,---,0.01,0.00,VWS V14.01,2013-11-24 00:24:00,
2013-11-23 18:25:00,45.7,42.9,30.27,NNW,334,8.0,19.2,90,0.00,,---,0.01,0.00,VWS V14.01,2013-11-24 00:25:00,
2013-11-23 18:29:00,45.8,43.0,30.27,North,5,13.0,19.2,90,0.00,,---,0.01,0.00,VWS V14.01,2013-11-24 00:29:00,
2013-11-23 18:30:00,45.7,42.9,30.27,NW,313,13.0,19.2,90,0.00,,---,0.01,0.00,VWS V14.01,2013-11-24 00:30:00,
2013-11-23 18:34:00,45.5,42.7,30.27,WNW,303,13.0,16.2,90,0.00,,---,0.01,0.00,VWS V14.01,2013-11-24 00:34:00,
2013-11-23 18:35:00,45.7,42.9,30.27,NNW,333,18.0,19.2,90,0.00,,---,0.01,0.00,VWS V14.01,2013-11-24 00:35:00,
2013-11-23 18:39:00,45.7,42.9,30.27,NNW,348,6.0,15.2,90,0.00,,---,0.01,0.00,VWS V14.01,2013-11-24 00:39:00,
2013-11-23 18:40:00,45.5,43.0,30.27,NW,325,5.0,19.2,91,0.00,,---,0.01,0.00,VWS V14.01,2013-11-24 00:40:00,
2013-11-23 18:44:00,45.5,42.7,30.27,NW,312,12.0,18.2,90,0.00,,---,0.01,0.00,VWS V14.01,2013-11-24 00:44:00,
2013-11-23 18:45:00,45.4,42.9,30.27,NNW,340,5.0,19.2,91,0.00,,---,0.01,0.00,VWS V14.01,2013-11-24 00:45:00,
2013-11-23 18:49:00,45.7,42.9,30.27,NW,325,6.0,15.2,90,0.00,,---,0.01,0.00,VWS V14.01,2013-11-24 00:49:00,
2013-11-23 18:50:00,45.5,43.3,30.27,NW,319,6.0,15.2,92,0.00,,---,0.01,0.00,VWS V14.01,2013-11-24 00:50:00,
2013-11-23 18:54:00,45.7,42.9,30.27,North,349,8.0,18.2,90,0.00,,---,0.01,0.00,VWS V14.01,2013-11-24 00:54:00,
2013-11-23 18:55:00,45.4,43.2,30.27,WNW,298,7.0,18.2,92,0.00,,---,0.01,0.00,VWS V14.01,2013-11-24 00:55:00,
2013-11-23 18:59:00,45.7,43.2,30.27,NW,305,7.0,14.2,91,0.00,,---,0.01,0.00,VWS V14.01,2013-11-24 00:59:00,
2013-11-23 19:00:00,45.5,43.3,30.28,NW,304,5.0,19.2,92,0.00,,---,0.01,0.00,VWS V14.01,2013-11-24 01:00:00,
2013-11-23 19:04:00,45.7,43.2,30.27,NW,313,14.0,16.2,91,0.00,,---,0.01,0.00,VWS V14.01,2013-11-24 01:04:00,
2013-11-23 19:05:00,45.5,43.3,30.28,NNW,336,3.0,17.2,92,0.00,,---,0.01,0.00,VWS V14.01,2013-11-24 01:05:00,
2013-11-23 19:09:00,45.7,42.9,30.27,NNW,332,7.0,22.2,90,0.00,,---,0.01,0.00,VWS V14.01,2013-11-24 01:09:00,
2013-11-23 19:10:00,45.5,43.3,30.28,North,355,9.0,18.2,92,0.00,,---,0.01,0.00,VWS V14.01,2013-11-24 01:10:00,
2013-11-23 19:14:00,45.8,43.0,30.27,NNW,343,10.0,19.2,90,0.00,,---,0.01,0.00,VWS V14.01,2013-11-24 01:14:00,
2013-11-23 19:15:00,45.5,43.3,30.29,NNW,337,3.0,15.2,92,0.00,,---,0.01,0.00,VWS V14.01,2013-11-24 01:15:00,
2013-11-23 19:19:00,45.7,42.7,30.27,NNW,328,10.0,23.2,89,0.00,,---,0.01,0.00,VWS V14.01,2013-11-24 01:19:00,
2013-11-23 19:20:00,45.4,42.9,30.29,NW,321,13.0,18.2,91,0.00,,---,0.01,0.00,VWS V14.01,2013-11-24 01:20:00,
2013-11-23 19:24:00,45.7,42.7,30.27,North,360,3.0,19.2,89,0.00,,---,0.01,0.00,VWS V14.01,2013-11-24 01:24:00,
2013-11-23 19:25:00,45.4,42.9,30.29,North,9,5.0,19.2,91,0.00,,---,0.01,0.00,VWS V14.01,2013-11-24 01:25:00,
2013-11-23 19:29:00,45.7,42.9,30.27,North,5,17.0,18.2,90,0.00,,---,0.01,0.00,VWS V14.01,2013-11-24 01:29:00,
2013-11-23 19:30:00,45.5,43.3,30.29,NW,321,11.0,17.2,92,0.00,,---,0.01,0.00,VWS V14.01,2013-11-24 01:30:00,
2013-11-23 19:34:00,45.7,42.9,30.27,NW,317,7.0,18.2,90,0.00,,---,0.01,0.00,VWS V14.01,2013-11-24 01:34:00,
2013-11-23 19:35:00,45.5,43.3,30.29,North,355,10.0,18.2,92,0.00,,---,0.01,0.00,VWS V14.01,2013-11-24 01:35:00,
2013-11-23 19:38:00,45.5,42.7,30.27,NNW,342,9.0,19.2,90,0.00,,---,0.01,0.00,VWS V14.01,2013-11-24 01:38:00,
2013-11-23 19:40:00,45.5,43.3,30.29,WNW,299,13.0,15.2,92,0.00,,---,0.01,0.00,VWS V14.01,2013-11-24 01:40:00,
2013-11-23 19:43:00,45.5,43.0,30.27,North,355,13.0,19.2,91,0.00,,---,0.01,0.00,VWS V14.01,2013-11-24 01:43:00,
2013-11-23 19:45:00,45.5,43.3,30.29,NNE,14,5.0,18.2,92,0.00,,---,0.01,0.00,VWS V14.01,2013-11-24 01:45:00,
2013-11-23 19:48:00,45.4,42.9,30.27,North,360,12.0,15.2,91,0.00,,---,0.01,0.00,VWS V14.01,2013-11-24 01:48:00,
2013-11-23 19:50:00,45.7,43.5,30.29,North,355,11.0,16.2,92,0.00,,---,0.01,0.00,VWS V14.01,2013-11-24 01:50:00,
2013-11-23 19:53:00,45.5,43.3,30.27,NW,313,13.0,17.2,92,0.00,,---,0.01,0.00,VWS V14.01,2013-11-24 01:53:00,
2013-11-23 19:55:00,45.5,43.0,30.29,NNW,345,5.0,20.2,91,0.00,,---,0.01,0.00,VWS V14.01,2013-11-24 01:55:00,
2013-11-23 19:58:00,45.5,43.3,30.27,North,350,6.0,19.2,92,0.00,,---,0.01,0.00,VWS V14.01,2013-11-24 01:58:00,
2013-11-23 20:00:00,45.7,43.2,30.30,NNW,331,3.0,16.2,91,0.00,,---,0.01,0.00,VWS V14.01,2013-11-24 02:00:00,
2013-11-23 20:03:00,45.5,43.3,30.28,WNW,296,7.0,17.2,92,0.00,,---,0.01,0.00,VWS V14.01,2013-11-24 02:03:00,
2013-11-23 20:05:00,45.7,43.2,30.30,North,360,6.0,15.2,91,0.00,,---,0.01,0.00,VWS V14.01,2013-11-24 02:05:00,
2013-11-23 20:08:00,45.5,43.3,30.28,NNW,348,4.0,14.2,92,0.00,,---,0.01,0.00,VWS V14.01,2013-11-24 02:08:00,
2013-11-23 20:10:00,45.7,43.2,30.30,NW,323,4.0,15.2,91,0.00,,---,0.01,0.00,VWS V14.01,2013-11-24 02:10:00,
2013-11-23 20:13:00,45.5,43.3,30.28,NNW,338,11.0,14.2,92,0.00,,---,0.01,0.00,VWS V14.01,2013-11-24 02:13:00,
2013-11-23 20:15:00,45.7,43.2,30.30,NNW,343,7.0,15.2,91,0.00,,---,0.01,0.00,VWS V14.01,2013-11-24 02:15:00,
2013-11-23 20:18:00,45.5,43.3,30.29,NNW,340,12.0,17.2,92,0.00,,---,0.01,0.00,VWS V14.01,2013-11-24 02:18:00,
2013-11-23 20:20:00,45.7,43.2,30.30,NNE,14,10.0,18.2,91,0.00,,---,0.01,0.00,VWS V14.01,2013-11-24 02:20:00,
2013-11-23 20:23:00,45.4,42.9,30.29,NW,304,14.0,19.2,91,0.00,,---,0.01,0.00,VWS V14.01,2013-11-24 02:23:00,
2013-11-23 20:25:00,45.7,43.5,30.30,NNW,348,4.0,19.2,92,0.00,,---,0.01,0.00,VWS V14.01,2013-11-24 02:25:00,
2013-11-23 20:28:00,45.5,43.3,30.29,North,10,13.0,15.2,92,0.00,,---,0.01,0.00,VWS V14.01,2013-11-24 02:28:00,
2013-11-23 20:30:00,45.8,43.6,30.30,NNE,23,8.0,16.2,92,0.00,,---,0.01,0.00,VWS V14.01,2013-11-24 02:30:00,
2013-11-23 20:33:00,45.5,43.3,30.29,NNE,24,6.0,15.2,92,0.00,,---,0.01,0.00,VWS V14.01,2013-11-24 02:33:00,
2013-11-23 20:35:00,45.8,43.6,30.30,NNW,331,13.0,19.2,92,0.00,,---,0.01,0.00,VWS V14.01,2013-11-24 02:35:00,
2013-11-23 20:38:00,45.5,43.3,30.29,North,349,7.0,15.2,92,0.00,,---,0.01,0.00,VWS V14.01,2013-11-24 02:38:00,
2013-11-23 20:40:00,45.8,43.6,30.30,NW,312,12.0,17.2,92,0.00,,---,0.01,0.00,VWS V14.01,2013-11-24 02:40:00,
2013-11-23 20:43:00,45.5,43.3,30.29,NNW,344,6.0,15.2,92,0.00,,---,0.01,0.00,VWS V14.01,2013-11-24 02:43:00,
2013-11-23 20:45:00,45.7,43.5,30.31,NNW,346,8.0,16.2,92,0.00,,---,0.01,0.00,VWS V14.01,2013-11-24 02:45:00,
2013-11-23 20:48:00,45.7,43.5,30.29,NNW,342,12.0,16.2,92,0.00,,---,0.01,0.00,VWS V14.01,2013-11-24 02:48:00,
2013-11-23 20:50:00,45.7,43.5,30.31,North,360,12.0,17.2,92,0.00,,---,0.01,0.00,VWS V14.01,2013-11-24 02:50:00,
2013-11-23 20:53:00,45.5,43.0,30.29,North,355,6.0,19.2,91,0.00,,---,0.01,0.00,VWS V14.01,2013-11-24 02:53:00,
2013-11-23 20:55:00,45.7,43.5,30.31,North,355,12.0,18.2,92,0.00,,---,0.01,0.00,VWS V14.01,2013-11-24 02:55:00,
2013-11-23 20:58:00,45.7,43.2,30.29,NNE,20,5.0,16.2,91,0.00,,---,0.01,0.00,VWS V14.01,2013-11-24 02:58:00,
2013-11-23 21:00:00,45.7,43.8,30.30,NNW,335,6.0,21.2,93,0.00,,---,0.01,0.00,VWS V14.01,2013-11-24 03:00:00,
2013-11-23 21:03:00,45.7,43.2,30.30,NNW,347,9.0,14.2,91,0.00,,---,0.01,0.00,VWS V14.01,2013-11-24 03:03:00,
2013-11-23 21:05:00,45.7,43.8,30.30,NNW,347,10.0,16.2,93,0.00,,---,0.01,0.00,VWS V14.01,2013-11-24 03:05:00,
2013-11-23 21:08:00,45.7,43.2,30.30,North,5,7.0,15.2,91,0.00,,---,0.01,0.00,VWS V14.01,2013-11-24 03:08:00,
2013-11-23 21:10:00,45.7,43.8,30.30,NNW,339,12.0,15.2,93,0.00,,---,0.01,0.00,VWS V14.01,2013-11-24 03:10:00,
2013-11-23 21:13:00,45.7,43.2,30.30,NNW,331,6.0,15.2,91,0.00,,---,0.01,0.00,VWS V14.01,2013-11-24 03:13:00,
2013-11-23 21:15:00,45.8,44.2,30.31,North,355,5.0,14.2,94,0.00,,---,0.01,0.00,VWS V14.01,2013-11-24 03:15:00,
2013-11-23 21:18:00,45.7,43.2,30.30,NNW,341,9.0,18.2,91,0.00,,---,0.01,0.00,VWS V14.01,2013-11-24 03:18:00,
2013-11-23 21:20:00,45.8,44.2,30.31,NNW,346,9.0,18.2,94,0.00,,---,0.01,0.00,VWS V14.01,2013-11-24 03:20:00,
2013-11-23 21:23:00,45.7,43.5,30.30,NNE,13,8.0,14.2,92,0.00,,---,0.01,0.00,VWS V14.01,2013-11-24 03:23:00,
2013-11-23 21:25:00,45.7,44.1,30.31,North,5,6.0,16.2,94,0.00,,---,0.01,0.00,VWS V14.01,2013-11-24 03:25:00,
2013-11-23 21:28:00,45.8,43.6,30.30,NNW,331,9.0,16.2,92,0.00,,---,0.01,0.00,VWS V14.01,2013-11-24 03:28:00,
2013-11-23 21:30:00,45.7,44.3,30.30,NNE,24,7.0,17.2,95,0.00,,---,0.01,0.00,VWS V14.01,2013-11-24 03:30:00,
2013-11-23 21:33:00,45.8,43.6,30.30,NNW,330,4.0,15.2,92,0.00,,---,0.01,0.00,VWS V14.01,2013-11-24 03:33:00,
2013-11-23 21:35:00,45.7,44.3,30.30,NNW,347,7.0,16.2,95,0.00,,---,0.01,0.00,VWS V14.01,2013-11-24 03:35:00,
2013-11-23 21:38:00,45.8,43.6,30.30,NNW,346,7.0,15.2,92,0.00,,---,0.01,0.00,VWS V14.01,2013-11-24 03:38:00,
2013-11-23 21:40:00,45.7,44.3,30.30,North,355,10.0,18.2,95,0.00,,---,0.01,0.00,VWS V14.01,2013-11-24 03:40:00,
2013-11-23 21:43:00,45.7,43.5,30.30,North,355,6.0,16.2,92,0.00,,---,0.01,0.00,VWS V14.01,2013-11-24 03:43:00,
2013-11-23 21:45:00,45.7,44.6,30.30,North,360,4.0,14.2,96,0.00,,---,0.01,0.00,VWS V14.01,2013-11-24 03:45:00,
2013-11-23 21:48:00,45.7,43.5,30.31,NW,323,6.0,15.2,92,0.00,,---,0.01,0.00,VWS V14.01,2013-11-24 03:48:00,
2013-11-23 21:50:00,45.7,44.6,30.30,NW,317,3.0,17.2,96,0.00,,---,0.01,0.00,VWS V14.01,2013-11-24 03:50:00,
2013-11-23 21:53:00,45.7,43.5,30.31,NW,321,7.0,17.2,92,0.00,,---,0.01,0.00,VWS V14.01,2013-11-24 03:53:00,
2013-11-23 21:55:00,45.7,44.6,30.30,NNW,345,12.0,15.2,96,0.00,,---,0.01,0.00,VWS V14.01,2013-11-24 03:55:00,
2013-11-23 21:58:00,45.7,43.5,30.31,North,351,12.0,16.2,92,0.00,,---,0.01,0.00,VWS V14.01,2013-11-24 03:58:00,
2013-11-23 22:00:00,45.7,44.6,30.30,NNW,333,5.0,15.2,96,0.00,,---,0.01,0.00,VWS V14.01,2013-11-24 04:00:00,
2013-11-23 22:03:00,45.7,43.8,30.30,NW,311,11.0,12.2,93,0.00,,---,0.01,0.00,VWS V14.01,2013-11-24 04:03:00,
2013-11-23 22:05:00,45.7,44.9,30.30,North,5,5.0,15.2,97,0.00,,---,0.01,0.00,VWS V14.01,2013-11-24 04:05:00,
2013-11-23 22:08:00,45.7,43.8,30.30,NW,311,10.0,15.2,93,0.00,,---,0.01,0.00,VWS V14.01,2013-11-24 04:08:00,
2013-11-23 22:10:00,45.7,44.9,30.30,North,5,3.0,16.2,97,0.00,,---,0.01,0.00,VWS V14.01,2013-11-24 04:10:00,
2013-11-23 22:13:00,45.8,44.2,30.30,North,360,7.0,13.2,94,0.00,,---,0.01,0.00,VWS V14.01,2013-11-24 04:13:00,
2013-11-23 22:15:00,45.7,44.9,30.30,North,5,11.0,17.2,97,0.00,,---,0.01,0.00,VWS V14.01,2013-11-24 04:15:00,
2013-11-23 22:18:00,45.8,44.2,30.31,North,5,10.0,15.2,94,0.00,,---,0.01,0.00,VWS V14.01,2013-11-24 04:18:00,
2013-11-23 22:20:00,45.7,44.9,30.30,NW,323,10.0,14.2,97,0.00,,---,0.01,0.00,VWS V14.01,2013-11-24 04:20:00,
2013-11-23 22:23:00,45.7,44.1,30.31,NNE,14,6.0,13.2,94,0.00,,---,0.01,0.00,VWS V14.01,2013-11-24 04:23:00,
2013-11-23 22:25:00,45.7,44.9,30.30,NNW,332,12.0,14.2,97,0.00,,---,0.01,0.00,VWS V14.01,2013-11-24 04:25:00,
2013-11-23 22:28:00,45.7,44.1,30.31,NW,319,6.0,16.2,94,0.00,,---,0.01,0.00,VWS V14.01,2013-11-24 04:28:00,
2013-11-23 22:30:00,45.7,45.2,30.30,NNW,334,5.0,14.2,98,0.00,,---,0.01,0.00,VWS V14.01,2013-11-24 04:30:00,
2013-11-23 22:33:00,45.7,44.3,30.30,NNW,329,10.0,12.2,95,0.00,,---,0.01,0.00,VWS V14.01,2013-11-24 04:33:00,
2013-11-23 22:35:00,45.8,45.3,30.30,NNW,345,4.0,12.2,98,0.00,,---,0.01,0.00,VWS V14.01,2013-11-24 04:35:00,
2013-11-23 22:38:00,45.7,44.3,30.30,NNW,331,7.0,18.2,95,0.00,,---,0.01,0.00,VWS V14.01,2013-11-24 04:38:00,
2013-11-23 22:40:00,45.8,45.3,30.30,NNW,328,10.0,12.2,98,0.00,,---,0.01,0.00,VWS V14.01,2013-11-24 04:40:00,
2013-11-23 22:43:00,45.7,44.3,30.30,North,360,9.0,14.2,95,0.00,,---,0.01,0.00,VWS V14.01,2013-11-24 04:43:00,
2013-11-23 22:45:00,45.8,45.3,30.29,NNW,345,5.0,12.2,98,0.00,,---,0.01,0.00,VWS V14.01,2013-11-24 04:45:00,
2013-11-23 22:48:00,45.7,44.6,30.30,North,5,8.0,14.2,96,0.00,,---,0.01,0.00,VWS V14.01,2013-11-24 04:48:00,
2013-11-23 22:50:00,45.8,45.3,30.29,North,355,4.0,14.2,98,0.00,,---,0.01,0.00,VWS V14.01,2013-11-24 04:50:00,
2013-11-23 22:53:00,45.7,44.6,30.30,NW,306,6.0,11.2,96,0.00,,---,0.01,0.00,VWS V14.01,2013-11-24 04:53:00,
2013-11-23 22:55:00,46.0,45.5,30.29,NNW,336,7.0,13.2,98,0.00,,---,0.01,0.00,VWS V14.01,2013-11-24 04:55:00,
2013-11-23 22:58:00,45.7,44.6,30.30,NNW,334,5.0,14.2,96,0.00,,---,0.01,0.00,VWS V14.01,2013-11-24 04:58:00,
2013-11-23 23:00:00,46.0,45.5,30.29,North,355,4.0,13.2,98,0.00,,---,0.00,0.00,VWS V14.01,2013-11-24 05:00:00,
2013-11-23 23:01:00,45.7,44.6,30.30,NW,319,10.0,15.2,96,0.00,,---,0.01,0.00,VWS V14.01,2013-11-24 05:01:00,
2013-11-23 23:05:00,46.1,45.8,30.29,NNW,340,7.0,12.2,99,0.00,,---,0.00,0.00,VWS V14.01,2013-11-24 05:05:00,
2013-11-23 23:06:00,45.7,44.9,30.30,North,360,10.0,15.2,97,0.00,,---,0.01,0.00,VWS V14.01,2013-11-24 05:06:00,
2013-11-23 23:10:00,46.1,45.8,30.29,North,355,7.0,15.2,99,0.00,,---,0.00,0.00,VWS V14.01,2013-11-24 05:10:00,
2013-11-23 23:11:00,45.7,44.9,30.30,North,5,2.0,16.2,97,0.00,,---,0.01,0.00,VWS V14.01,2013-11-24 05:11:00,
2013-11-23 23:15:00,46.1,45.8,30.29,NW,323,9.0,13.2,99,0.00,,---,0.00,0.00,VWS V14.01,2013-11-24 05:15:00,
2013-11-23 23:16:00,45.7,44.9,30.30,North,351,9.0,17.2,97,0.00,,---,0.01,0.00,VWS V14.01,2013-11-24 05:16:00,
2013-11-23 23:20:00,46.2,45.9,30.29,NNW,327,9.0,13.2,99,0.00,,---,0.00,0.00,VWS V14.01,2013-11-24 05:20:00,
2013-11-23 23:21:00,45.7,44.9,30.30,NNW,332,4.0,14.2,97,0.00,,---,0.01,0.00,VWS V14.01,2013-11-24 05:21:00,
2013-11-23 23:25:00,46.2,45.9,30.29,WNW,292,6.0,13.2,99,0.00,,---,0.00,0.00,VWS V14.01,2013-11-24 05:25:00,
2013-11-23 23:26:00,45.7,44.9,30.30,NW,326,6.0,14.2,97,0.00,,---,0.01,0.00,VWS V14.01,2013-11-24 05:26:00,
2013-11-23 23:30:00,46.2,45.9,30.29,NNW,327,7.0,14.2,99,0.00,,---,0.00,0.00,VWS V14.01,2013-11-24 05:30:00,
2013-11-23 23:31:00,45.7,45.2,30.30,NNW,336,11.0,14.2,98,0.00,,---,0.01,0.00,VWS V14.01,2013-11-24 05:31:00,
2013-11-23 23:35:00,46.4,46.1,30.29,NNW,333,6.0,15.2,99,0.00,,---,0.00,0.00,VWS V14.01,2013-11-24 05:35:00,
2013-11-23 23:36:00,45.8,45.3,30.30,NNW,346,6.0,12.2,98,0.00,,---,0.01,0.00,VWS V14.01,2013-11-24 05:36:00,
2013-11-23 23:40:00,46.4,46.1,30.29,NNW,329,11.0,12.2,99,0.00,,---,0.00,0.00,VWS V14.01,2013-11-24 05:40:00,
2013-11-23 23:41:00,45.8,45.3,30.30,NNW,346,2.0,12.2,98,0.00,,---,0.01,0.00,VWS V14.01,2013-11-24 05:41:00,
2013-11-23 23:45:00,46.4,46.1,30.29,North,5,3.0,13.2,99,0.00,,---,0.00,0.00,VWS V14.01,2013-11-24 05:45:00,
2013-11-23 23:46:00,45.8,45.3,30.29,North,355,5.0,12.2,98,0.00,,---,0.01,0.00,VWS V14.01,2013-11-24 05:46:00,
2013-11-23 23:50:00,46.4,46.1,30.29,North,355,6.0,12.2,99,0.00,,---,0.00,0.00,VWS V14.01,2013-11-24 05:50:00,
2013-11-23 23:51:00,45.8,45.3,30.29,North,355,3.0,14.2,98,0.00,,---,0.01,0.00,VWS V14.01,2013-11-24 05:51:00,
2013-11-23 23:55:00,46.5,46.2,30.29,NNW,340,2.0,12.2,99,0.00,,---,0.00,0.00,VWS V14.01,2013-11-24 05:55:00,
2013-11-23 23:56:00,46.0,45.5,30.29,NNW,334,5.0,13.2,98,0.00,,---,0.01,0.00,VWS V14.01,2013-11-24 05:56:00,
2013-11-23 23:57:00,46.0,45.5,30.29,NNW,333,9.0,12.2,98,0.00,,---,0.01,0.00,VWS V14.01,2013-11-24 05:57:00,